Friday, August 29, 2014, 12:19 PM EDT

KPOU, Poughkeepsie Dutchess Cty

Location: Wappingers Falls, NY, United States Lat: 41.633
Local Time: 12:19 PM EDT (16:19 GMT) Lon: -73.883
Time Zone: US/Eastern Elev: 167 ft

Show me the last for .
Show Decoded

2014-08-29 11:53 METAR KPOU 291553Z VRB05KT 10SM FEW040 22/12 A3019 RMK AO2 SLP219 T02220117 =
2014-08-29 10:53 METAR KPOU 291453Z 00000KT 10SM CLR 21/12 A3020 RMK AO2 SLP221 T02060117 50006 =
2014-08-29 09:53 METAR KPOU 291353Z 35006KT 10SM CLR 19/11 A3020 RMK AO2 SLP223 T01940111 =
2014-08-29 08:53 METAR KPOU 291253Z 00000KT 10SM CLR 17/12 A3019 RMK AO2 SLP220 T01670122 =
2014-08-29 07:53 METAR KPOU 291153Z 00000KT 10SM CLR 13/11 A3018 RMK AO2 SLP216 T01280111 10133
                 20089 53024 =
2014-08-29 06:53 METAR KPOU 291053Z 00000KT 10SM CLR 10/09 A3016 RMK AO2 SLP208 T01000089 =
2014-08-29 05:53 METAR KPOU 290953Z AUTO 00000KT 10SM CLR 10/09 A3013 RMK AO2 SLP199 T01000089 =
2014-08-29 04:53 METAR KPOU 290853Z AUTO 00000KT 10SM CLR 11/09 A3011 RMK AO2 SLP191 T01060089
                 53007 =
2014-08-29 03:53 METAR KPOU 290753Z AUTO 00000KT 10SM CLR 11/09 A3010 =
2014-08-29 02:53 METAR KPOU 290653Z AUTO 00000KT 9SM CLR 12/10 A3009 RMK AO2 SLP185 T01170100 =
2014-08-29 01:53 METAR KPOU 290553Z AUTO 11003KT 10SM CLR 12/11 A3009 RMK AO2 SLP184 T01170106
                 10217 20117 51016 =
2014-08-29 00:53 METAR KPOU 290453Z AUTO 00000KT 10SM CLR 13/11 A3008 RMK AO2 SLP181 T01330111
                 402720128 =
2014-08-28 23:53 METAR KPOU 290353Z AUTO 00000KT 10SM CLR 14/11 A3006 RMK AO2 SLP175 T01390111 =
2014-08-28 22:53 METAR KPOU 290253Z AUTO 00000KT 10SM CLR 16/11 A3004 RMK AO2 SLP168 T01610106
                 51024 =
2014-08-28 21:53 METAR KPOU 290153Z 34005KT 10SM CLR 19/10 A3003 RMK AO2 SLP166 T01890100 =
2014-08-28 20:53 METAR KPOU 290053Z 32007G15KT 10SM BKN075 21/10 A3001 RMK AO2 SLP157 T02060100 =
2014-08-28 19:53 METAR KPOU 282353Z 31005KT 10SM BKN075 22/10 A2997 RMK AO2 SLP144 T02170100
                 10272 20217 53022 =
2014-08-28 18:53 METAR KPOU 282253Z 31013KT 10SM BKN075 23/09 A2994 =
2014-08-28 17:53 METAR KPOU 282153Z 31009KT 10SM BKN080 24/09 A2992 RMK AO2 SLP128 T02440089 =
2014-08-28 16:53 METAR KPOU 282053Z 33011KT 10SM BKN075 25/09 A2990 RMK AO2 SLP122 T02500094
                 53006 =
2014-08-28 15:53 METAR KPOU 281953Z 33008KT 10SM BKN070 26/09 A2988 RMK AO2 SLP115 T02560089 =
2014-08-28 14:53 METAR KPOU 281853Z 33010G19KT 10SM BKN070 26/10 A2988 RMK AO2 SLP114 T02610100 =
2014-08-28 13:53 METAR KPOU 281753Z 32012G19KT 10SM FEW060 SCT075 26/11 A2989 RMK AO2 SLP116
                 T02610106 10267 20178 56007 =
2014-08-28 12:53 METAR KPOU 281653Z 29011G16KT 10SM BKN060 BKN070 26/12 A2989 RMK AO2 SLP116
                 T02560117 =

Support USWX by starting your Amazon purchase here.